createdAt,value
2022-09-01T00:00:32.933Z,1.70
2022-09-01T00:03:02.120Z,0.93
2022-09-01T00:05:32.799Z,1.02
2022-09-01T00:08:03.952Z,1.10
2022-09-01T00:10:33.120Z,1.10
2022-09-01T00:13:07.215Z,1.10
2022-09-01T00:15:36.452Z,0.85
2022-09-01T00:18:06.006Z,1.00
2022-09-01T00:20:35.045Z,1.45
2022-09-01T00:23:04.231Z,0.80
2022-09-01T00:25:33.563Z,1.52
2022-09-01T00:28:05.077Z,0.95
2022-09-01T00:30:34.400Z,1.07
2022-09-01T00:33:03.531Z,0.98
2022-09-01T00:35:32.456Z,1.10
2022-09-01T00:38:07.674Z,1.83
2022-09-01T00:40:36.949Z,1.33
2022-09-01T00:43:14.879Z,1.20
2022-09-01T00:45:43.955Z,0.98
2022-09-01T00:48:14.319Z,1.52
2022-09-01T00:50:43.778Z,1.25
2022-09-01T00:53:18.569Z,0.95
2022-09-01T00:55:47.517Z,1.17
2022-09-01T00:58:19.715Z,1.23
2022-09-01T01:00:51.069Z,1.30
2022-09-01T01:03:20.002Z,1.20
2022-09-01T01:05:54.161Z,1.40
2022-09-01T01:08:31.621Z,1.33
2022-09-01T01:11:00.787Z,1.40
2022-09-01T01:13:36.027Z,1.30
2022-09-01T01:16:11.008Z,1.33
2022-09-01T01:18:40.003Z,0.90
2022-09-01T01:21:34.346Z,1.02
2022-09-01T01:24:07.297Z,1.27
2022-09-01T01:26:37.673Z,1.27
2022-09-01T01:29:09.906Z,0.95
2022-09-01T01:31:39.403Z,1.20
2022-09-01T01:34:08.849Z,1.30
2022-09-01T01:36:41.205Z,2.50
2022-09-01T01:39:16.882Z,1.52
2022-09-01T01:41:49.001Z,1.00
2022-09-01T01:44:20.142Z,1.63
2022-09-01T01:46:51.264Z,1.30
2022-09-01T01:49:21.811Z,1.00
2022-09-01T01:51:56.294Z,1.52
2022-09-01T01:54:32.725Z,1.30
2022-09-01T01:57:04.453Z,1.00
2022-09-01T01:59:34.016Z,1.30
2022-09-01T02:02:09.793Z,1.30
2022-09-01T02:04:40.835Z,0.80
2022-09-01T02:07:13.648Z,1.17
2022-09-01T02:09:46.099Z,1.13
2022-09-01T02:12:19.666Z,1.48
2022-09-01T02:14:50.117Z,1.23
2022-09-01T02:17:21.210Z,1.50
2022-09-01T02:19:50.325Z,1.17
2022-09-01T02:22:21.726Z,1.30
2022-09-01T02:24:52.495Z,1.10
2022-09-01T02:27:27.024Z,1.13
2022-09-01T02:29:58.991Z,1.40
2022-09-01T02:32:28.278Z,1.52
2022-09-01T02:35:01.320Z,1.52
2022-09-01T02:37:30.495Z,2.22
2022-09-01T02:39:59.680Z,1.40
2022-09-01T02:42:30.261Z,1.38
2022-09-01T02:44:59.717Z,1.40
2022-09-01T02:47:33.619Z,1.67
2022-09-01T02:50:03.786Z,1.55
2022-09-01T02:52:37.087Z,1.17
2022-09-01T02:55:06.558Z,1.25
2022-09-01T02:57:37.209Z,1.00
2022-09-01T03:00:20.616Z,1.20
2022-09-01T03:02:51.450Z,1.27
2022-09-01T03:05:25.358Z,1.20
2022-09-01T03:07:56.667Z,1.70
2022-09-01T03:10:31.312Z,1.30
2022-09-01T03:13:02.551Z,2.83
2022-09-01T03:15:33.940Z,1.50
2022-09-01T03:18:04.221Z,1.35
2022-09-01T03:20:36.074Z,1.40
2022-09-01T03:23:08.012Z,1.13
2022-09-01T03:25:37.991Z,1.30
2022-09-01T03:28:09.667Z,1.42
2022-09-01T03:33:09.610Z,1.83
2022-09-01T03:35:38.792Z,1.48
2022-09-01T03:38:07.976Z,1.40
2022-09-01T03:40:38.152Z,2.10
2022-09-01T03:43:12.402Z,2.75
2022-09-01T03:45:43.471Z,1.70
2022-09-01T03:48:17.049Z,1.65
2022-09-01T03:50:47.250Z,1.70
2022-09-01T03:53:17.576Z,1.80
2022-09-01T03:55:47.218Z,1.88
2022-09-01T03:58:20.282Z,1.30
2022-09-01T04:00:50.263Z,2.03
2022-09-01T04:03:28.597Z,1.50
2022-09-01T04:05:59.152Z,1.38
2022-09-01T04:08:32.950Z,1.83
2022-09-01T04:11:05.352Z,1.40
2022-09-01T04:13:40.094Z,1.40
2022-09-01T04:16:30.449Z,1.30
2022-09-01T04:19:00.737Z,1.15
2022-09-01T04:21:30.512Z,1.60
2022-09-01T04:24:05.223Z,2.17
2022-09-01T04:26:34.868Z,2.08
2022-09-01T04:29:06.909Z,1.90
2022-09-01T04:31:37.985Z,2.03
2022-09-01T04:34:11.126Z,2.38
2022-09-01T04:36:42.209Z,2.25
2022-09-01T04:39:13.849Z,1.75
2022-09-01T04:41:46.211Z,1.63
2022-09-01T04:44:19.483Z,1.63
2022-09-01T04:46:50.624Z,1.73
2022-09-01T04:49:22.567Z,1.55
2022-09-01T04:51:55.109Z,2.05
2022-09-01T04:54:27.005Z,1.60
2022-09-01T04:56:56.050Z,2.20
2022-09-01T04:59:29.781Z,2.10
2022-09-01T05:02:07.882Z,1.63
2022-09-01T05:04:46.560Z,1.65
2022-09-01T05:07:16.284Z,1.42
2022-09-01T05:09:45.868Z,1.88
2022-09-01T05:12:53.262Z,1.65
2022-09-01T05:15:27.473Z,1.50
2022-09-01T05:17:59.897Z,1.48
2022-09-01T05:23:02.055Z,1.45
2022-09-01T05:25:31.407Z,1.77
2022-09-01T05:28:03.306Z,2.15
2022-09-01T05:30:38.810Z,2.05
2022-09-01T05:33:11.947Z,2.00
2022-09-01T05:35:45.105Z,2.17
2022-09-01T05:38:25.788Z,2.90
2022-09-01T05:41:02.247Z,1.63
2022-09-01T05:43:34.946Z,1.52
2022-09-01T05:46:10.052Z,1.85
2022-09-01T05:48:40.685Z,1.90
2022-09-01T05:51:42.312Z,2.10
2022-09-01T05:54:05.151Z,2.35
2022-09-01T05:56:44.093Z,2.40
2022-09-01T05:59:23.767Z,1.90
2022-09-01T06:01:59.783Z,1.38
2022-09-01T06:04:32.929Z,2.25
2022-09-01T06:07:09.006Z,1.80
2022-09-01T06:09:59.827Z,1.83
2022-09-01T06:12:30.331Z,2.10
2022-09-01T06:15:00.310Z,2.03
2022-09-01T06:17:36.734Z,3.05
2022-09-01T06:20:10.778Z,2.08
2022-09-01T06:22:46.279Z,1.65
2022-09-01T06:25:17.398Z,1.85
2022-09-01T06:27:51.330Z,1.52
2022-09-01T06:33:10.945Z,1.63
2022-09-01T06:35:44.848Z,2.33
2022-09-01T06:38:17.814Z,2.47
2022-09-01T06:40:54.822Z,2.30
2022-09-01T06:43:25.806Z,1.65
2022-09-01T06:45:57.261Z,1.75
2022-09-01T06:48:28.064Z,1.40
2022-09-01T06:51:16.548Z,1.52
2022-09-01T06:53:51.340Z,1.52
2022-09-01T06:56:29.120Z,1.98
2022-09-01T06:59:06.234Z,1.40
2022-09-01T07:01:41.725Z,1.10
2022-09-01T07:04:20.356Z,1.20
2022-09-01T07:07:00.184Z,1.42
2022-09-01T07:09:50.243Z,1.10
2022-09-01T07:18:41.214Z,1.88
2022-09-01T07:24:10.881Z,1.35
2022-09-01T07:26:48.109Z,1.27
2022-09-01T07:29:17.616Z,2.22
2022-09-01T07:31:52.173Z,1.33
2022-09-01T07:34:38.816Z,1.45
2022-09-01T07:38:46.877Z,2.13
2022-09-01T07:46:00.577Z,1.20
2022-09-01T07:49:01.887Z,1.30
2022-09-01T07:51:36.459Z,1.48
2022-09-01T07:54:08.363Z,1.67
2022-09-01T07:56:40.580Z,1.90
2022-09-01T07:59:16.330Z,1.55
2022-09-01T08:01:55.883Z,1.42
2022-09-01T08:04:29.396Z,0.90
2022-09-01T08:06:59.139Z,1.20
2022-09-01T08:09:38.152Z,1.30
2022-09-01T08:12:13.208Z,0.82
2022-09-01T08:15:12.726Z,2.22
2022-09-01T08:17:52.899Z,0.90
2022-09-01T08:20:25.294Z,1.17
2022-09-01T08:22:58.481Z,2.40
2022-09-01T08:25:37.630Z,1.10
2022-09-01T08:28:07.846Z,1.77
2022-09-01T08:30:52.040Z,1.30
2022-09-01T08:34:00.671Z,1.10
2022-09-01T08:37:10.141Z,1.70
2022-09-01T08:41:58.737Z,1.35
2022-09-01T08:44:41.632Z,1.55
2022-09-01T08:54:37.429Z,0.85
2022-09-01T09:02:19.805Z,1.10
2022-09-01T09:05:30.461Z,1.10
2022-09-01T09:08:41.472Z,1.00
2022-09-01T09:15:25.897Z,1.98
2022-09-01T09:19:10.570Z,0.93
2022-09-01T09:22:03.200Z,0.93
2022-09-01T09:28:47.920Z,1.45
2022-09-01T09:32:39.516Z,1.17
2022-09-01T09:39:59.167Z,1.02
2022-09-01T09:42:49.162Z,1.92
2022-09-01T09:45:31.570Z,1.25
2022-09-01T09:48:13.320Z,1.10
2022-09-01T09:51:00.093Z,1.95
2022-09-01T09:53:54.274Z,1.15
2022-09-01T09:56:34.491Z,1.10
2022-09-01T09:59:56.574Z,1.00
2022-09-01T10:03:41.118Z,1.63
2022-09-01T10:06:59.278Z,2.17
2022-09-01T10:42:45.202Z,0.88
2022-09-01T11:08:41.605Z,0.65
2022-09-01T11:45:43.377Z,1.10
2022-09-01T11:48:16.030Z,1.15
2022-09-01T11:50:46.247Z,2.00
2022-09-01T11:53:16.216Z,1.33
2022-09-01T11:55:46.793Z,1.05
2022-09-01T11:58:31.229Z,1.33
2022-09-01T12:01:13.956Z,0.88
2022-09-01T12:03:44.651Z,0.90
2022-09-01T12:06:15.418Z,1.48
2022-09-01T12:08:52.919Z,1.02
2022-09-01T12:11:26.109Z,0.82
2022-09-01T12:14:00.058Z,1.35
2022-09-01T12:16:32.184Z,1.05
2022-09-01T12:21:31.160Z,1.25
2022-09-01T12:24:13.359Z,1.17
2022-09-01T12:26:43.194Z,1.10
2022-09-01T12:29:13.962Z,1.42
2022-09-01T12:31:45.920Z,0.90
2022-09-01T12:34:25.998Z,1.05
2022-09-01T12:37:05.302Z,1.05
2022-09-01T12:39:36.065Z,0.88
2022-09-01T12:42:07.205Z,1.13
2022-09-01T12:44:46.686Z,0.60
2022-09-01T12:47:37.648Z,2.10
2022-09-01T12:50:08.220Z,1.17
2022-09-01T12:52:40.186Z,0.80
2022-09-01T12:58:07.595Z,1.48
2022-09-01T13:00:37.508Z,1.30
2022-09-01T13:03:09.665Z,1.10
2022-09-01T13:08:12.140Z,0.88
2022-09-01T13:10:43.170Z,1.00
2022-09-01T13:13:13.480Z,1.07
2022-09-01T13:15:48.157Z,0.80
2022-09-01T13:18:19.646Z,0.85
2022-09-01T13:20:49.019Z,1.10
2022-09-01T13:23:18.435Z,1.05
2022-09-01T13:25:47.728Z,0.98
2022-09-01T13:28:17.484Z,1.27
2022-09-01T13:30:48.466Z,0.93
2022-09-01T13:33:21.314Z,1.23
2022-09-01T13:35:52.423Z,1.00
2022-09-01T13:38:21.346Z,1.17
2022-09-01T13:40:51.110Z,1.05
2022-09-01T13:43:22.159Z,0.85
2022-09-01T13:45:51.741Z,1.00
2022-09-01T13:48:23.116Z,1.20
2022-09-01T13:53:42.658Z,1.10
2022-09-01T13:56:11.843Z,1.15
2022-09-01T13:58:41.117Z,1.42
2022-09-01T14:01:10.203Z,1.25
2022-09-01T14:03:41.729Z,1.55
2022-09-01T14:06:10.719Z,1.10
2022-09-01T14:08:40.151Z,1.60
2022-09-01T14:11:09.987Z,1.38
2022-09-01T14:13:40.180Z,1.40
2022-09-01T14:16:12.155Z,1.55
2022-09-01T14:21:14.857Z,1.52
2022-09-01T14:23:44.147Z,1.35
2022-09-01T14:26:13.749Z,1.70
2022-09-01T14:28:45.795Z,1.60
2022-09-01T14:31:15.339Z,2.28
2022-09-01T14:33:49.112Z,1.42
2022-09-01T14:36:21.108Z,1.75
2022-09-01T14:38:50.613Z,2.03
2022-09-01T14:41:21.910Z,1.63
2022-09-01T14:43:51.086Z,1.70
2022-09-01T14:46:20.586Z,1.83
2022-09-01T14:48:50.739Z,1.75
2022-09-01T14:51:24.145Z,1.88
2022-09-01T14:53:53.460Z,1.80
2022-09-01T14:56:22.962Z,1.85
2022-09-01T14:58:54.122Z,1.42
2022-09-01T15:01:34.155Z,1.70
2022-09-01T15:04:04.276Z,2.13
2022-09-01T15:06:34.653Z,2.20
2022-09-01T15:09:03.916Z,2.55
2022-09-01T15:11:32.952Z,1.80
2022-09-01T15:14:05.074Z,1.77
2022-09-01T15:16:39.475Z,1.63
2022-09-01T15:19:09.861Z,2.05
2022-09-01T15:21:41.450Z,1.98
2022-09-01T15:24:11.327Z,2.00
2022-09-01T15:26:41.774Z,2.65
2022-09-01T15:29:13.211Z,2.45
2022-09-01T15:31:43.962Z,1.58
2022-09-01T15:34:14.150Z,1.63
2022-09-01T15:36:45.365Z,1.67
2022-09-01T15:39:14.601Z,1.70
2022-09-01T15:41:45.910Z,1.73
2022-09-01T15:44:15.002Z,1.67
2022-09-01T15:46:46.947Z,1.58
2022-09-01T15:49:18.164Z,1.40
2022-09-01T15:51:48.629Z,1.73
2022-09-01T15:54:19.067Z,1.92
2022-09-01T15:56:49.149Z,2.00
2022-09-01T15:59:18.490Z,1.90
2022-09-01T16:01:47.955Z,1.85
2022-09-01T16:04:20.855Z,2.38
2022-09-01T16:06:56.591Z,2.25
2022-09-01T16:09:26.492Z,2.00
2022-09-01T16:11:55.631Z,2.10
2022-09-01T16:14:24.628Z,1.90
2022-09-01T16:16:57.645Z,2.20
2022-09-01T16:19:32.111Z,2.65
2022-09-01T16:22:07.017Z,2.03
2022-09-01T16:24:41.872Z,2.38
2022-09-01T16:27:13.631Z,1.40
2022-09-01T16:29:45.979Z,2.22
2022-09-01T16:32:15.719Z,2.03
2022-09-01T16:34:47.062Z,2.30
2022-09-01T16:37:23.765Z,1.98
2022-09-01T16:39:57.159Z,2.35
2022-09-01T16:42:29.261Z,1.98
2022-09-01T16:50:06.218Z,3.10
2022-09-01T16:52:42.441Z,2.92
2022-09-01T16:55:18.438Z,3.25
2022-09-01T16:57:59.075Z,2.60
2022-09-01T17:00:33.092Z,2.00
2022-09-01T17:03:08.890Z,4.05
2022-09-01T17:05:51.423Z,3.05
2022-09-01T17:08:23.273Z,3.20
2022-09-01T17:10:54.144Z,2.83
2022-09-01T17:13:25.979Z,3.08
2022-09-01T17:16:02.699Z,2.88
2022-09-01T17:18:35.647Z,2.92
2022-09-01T17:21:10.609Z,3.40
2022-09-01T17:23:42.578Z,3.40
2022-09-01T17:26:15.973Z,3.33
2022-09-01T17:28:51.762Z,4.10
2022-09-01T17:31:27.269Z,3.55
2022-09-01T17:34:01.987Z,4.00
2022-09-01T17:36:37.053Z,3.60
2022-09-01T17:39:14.298Z,4.80
2022-09-01T17:41:47.406Z,4.13
2022-09-01T17:44:21.157Z,4.43
2022-09-01T17:46:55.950Z,4.32
2022-09-01T17:49:28.030Z,4.20
2022-09-01T17:54:33.077Z,4.93
2022-09-01T17:57:05.470Z,5.18
2022-09-01T17:59:43.190Z,4.82
2022-09-01T18:02:36.578Z,5.13
2022-09-01T18:05:09.441Z,5.05
2022-09-01T18:07:53.320Z,5.82
2022-09-01T18:10:27.223Z,6.15
2022-09-01T18:13:00.594Z,5.13
2022-09-01T18:15:30.745Z,4.47
2022-09-01T18:18:04.359Z,5.40
2022-09-01T18:20:35.555Z,6.40
2022-09-01T18:23:06.631Z,6.63
2022-09-01T18:25:40.541Z,5.90
2022-09-01T18:28:10.430Z,5.15
2022-09-01T18:30:54.692Z,5.63
2022-09-01T18:33:27.269Z,6.63
2022-09-01T18:36:01.557Z,6.85
2022-09-01T18:38:35.670Z,5.85
2022-09-01T18:41:13.563Z,6.65
2022-09-01T18:43:44.839Z,6.90
2022-09-01T18:46:18.685Z,6.83
2022-09-01T18:48:53.910Z,6.88
2022-09-01T18:51:26.312Z,7.22
2022-09-01T18:53:59.070Z,6.35
2022-09-01T18:56:37.634Z,5.78
2022-09-01T18:59:13.024Z,6.47
2022-09-01T19:01:47.218Z,6.40
2022-09-01T19:04:19.831Z,7.13
2022-09-01T19:06:54.001Z,7.15
2022-09-01T19:09:26.380Z,7.35
2022-09-01T19:12:11.304Z,7.65
2022-09-01T19:14:44.404Z,7.25
2022-09-01T19:17:20.881Z,5.88
2022-09-01T19:19:53.169Z,5.85
2022-09-01T19:22:23.626Z,5.80
2022-09-01T19:24:54.663Z,8.15
2022-09-01T19:27:27.127Z,5.53
2022-09-01T19:29:59.313Z,6.60
2022-09-01T19:34:58.495Z,5.75
2022-09-01T19:37:27.977Z,6.45
2022-09-01T19:39:57.477Z,6.13
2022-09-01T19:42:30.500Z,6.28
2022-09-01T19:45:06.537Z,6.07
2022-09-01T19:47:38.550Z,5.47
2022-09-01T19:50:10.811Z,7.07
2022-09-01T19:52:42.271Z,6.32
2022-09-01T19:55:14.058Z,5.53
2022-09-01T19:57:47.788Z,5.95
2022-09-01T20:00:19.652Z,5.53
2022-09-01T20:02:52.696Z,5.78
2022-09-01T20:05:27.261Z,5.95
2022-09-01T20:08:00.046Z,5.65
2022-09-01T20:10:36.035Z,5.30
2022-09-01T20:13:17.954Z,6.95
2022-09-01T20:15:50.461Z,4.97
2022-09-01T20:18:22.900Z,4.97
2022-09-01T20:20:53.081Z,5.05
2022-09-01T20:23:27.138Z,6.20
2022-09-01T20:25:59.856Z,5.40
2022-09-01T20:28:34.478Z,7.20
2022-09-01T20:31:05.064Z,4.65
2022-09-01T20:33:36.677Z,6.28
2022-09-01T20:36:08.842Z,6.30
2022-09-01T20:39:17.731Z,4.75
2022-09-01T20:41:49.931Z,3.78
2022-09-01T20:44:26.399Z,4.55
2022-09-01T20:46:55.662Z,4.20
2022-09-01T20:49:24.846Z,4.32
2022-09-01T20:51:57.726Z,4.55
2022-09-01T20:54:31.219Z,5.10
2022-09-01T20:57:03.826Z,4.38
2022-09-01T20:59:39.506Z,4.55
2022-09-01T21:02:14.624Z,4.47
2022-09-01T21:04:50.776Z,4.32
2022-09-01T21:07:21.765Z,4.10
2022-09-01T21:09:56.109Z,3.90
2022-09-01T21:12:29.167Z,5.13
2022-09-01T21:15:03.769Z,4.55
2022-09-01T21:17:40.222Z,4.43
2022-09-01T21:20:13.224Z,4.40
2022-09-01T21:22:42.284Z,4.30
2022-09-01T21:25:11.262Z,4.40
2022-09-01T21:27:44.230Z,5.15
2022-09-01T21:30:16.077Z,5.05
2022-09-01T21:32:45.169Z,5.60
2022-09-01T21:35:15.305Z,4.93
2022-09-01T21:37:44.524Z,9.68
2022-09-01T21:40:14.724Z,8.65
2022-09-01T21:42:44.885Z,7.63
2022-09-01T21:45:17.680Z,5.53
2022-09-01T21:47:48.034Z,6.20
2022-09-01T21:50:18.150Z,5.32
2022-09-01T21:52:47.199Z,5.45
2022-09-01T21:55:22.060Z,6.13
2022-09-01T21:57:52.243Z,6.25
2022-09-01T22:00:24.120Z,7.88
2022-09-01T22:02:54.233Z,7.70
2022-09-01T22:05:26.229Z,6.25
2022-09-01T22:07:56.046Z,8.20
2022-09-01T22:10:26.420Z,8.05
2022-09-01T22:12:56.265Z,7.90
2022-09-01T22:15:27.735Z,8.38
2022-09-01T22:17:58.164Z,7.70
2022-09-01T22:20:29.254Z,7.57
2022-09-01T22:23:02.030Z,8.13
2022-09-01T22:25:31.822Z,7.82
2022-09-01T22:28:01.223Z,8.70
2022-09-01T22:30:32.187Z,9.20
2022-09-01T22:33:02.609Z,8.93
2022-09-01T22:35:31.625Z,11.10
2022-09-01T22:38:07.296Z,11.77
2022-09-01T22:40:38.020Z,11.48
2022-09-01T22:43:07.397Z,11.00
2022-09-01T22:45:38.688Z,11.88
2022-09-01T22:48:07.907Z,12.10
2022-09-01T22:50:39.683Z,11.38
2022-09-01T22:53:12.610Z,11.48
2022-09-01T22:55:43.043Z,9.13
2022-09-01T22:58:13.037Z,9.63
2022-09-01T23:00:47.693Z,7.75
2022-09-01T23:03:17.490Z,8.32
2022-09-01T23:05:47.277Z,8.48
2022-09-01T23:08:17.112Z,8.75
2022-09-01T23:10:46.287Z,8.20
2022-09-01T23:13:15.330Z,8.57
2022-09-01T23:15:45.944Z,8.07
2022-09-01T23:18:14.984Z,7.45
2022-09-01T23:20:43.988Z,7.70
2022-09-01T23:23:15.161Z,8.18
2022-09-01T23:25:44.963Z,5.87
2022-09-01T23:28:14.540Z,6.70
2022-09-01T23:30:45.740Z,7.68
2022-09-01T23:33:16.220Z,8.17
2022-09-01T23:35:45.352Z,6.70
2022-09-01T23:38:16.877Z,6.15
2022-09-01T23:40:47.082Z,6.95
2022-09-01T23:43:19.656Z,6.85
2022-09-01T23:45:51.298Z,6.90
2022-09-01T23:48:22.133Z,6.47
2022-09-01T23:50:53.645Z,5.88
2022-09-01T23:53:23.797Z,6.25
2022-09-01T23:55:53.887Z,7.25
2022-09-01T23:58:24.264Z,7.45
